Time;durP1;ratioP1;P1;durP2;ratioP2;P2;SDS_P1;SDS_P2;PMS_P1;PMS_P2;Temp;Humidity;BMP_temperature;BMP_pressure;BME280_temperature;BME280_humidity;BME280_pressure;Samples;Min_cycle;Max_cycle;Signal;HPM_P1;HPM_P2
2020/12/28 00:00:55;;;;;;;0.65;0.43;;;6.70;99.90;;;;;;2104768;28;20032;-74
2020/12/28 00:01:56;;;;;;;0.65;0.63;;;6.70;99.90;;;;;;2105718;28;20146;-74
2020/12/28 00:02:56;;;;;;;0.47;0.47;;;6.70;99.90;;;;;;2106434;28;20069;-75
2020/12/28 00:03:57;;;;;;;0.50;0.50;;;6.70;99.90;;;;;;2106452;28;20068;-75
2020/12/28 00:04:58;;;;;;;0.40;0.40;;;6.70;99.90;;;;;;2106553;28;20505;-74
2020/12/28 00:05:58;;;;;;;0.47;0.40;;;6.70;99.90;;;;;;2106312;28;20533;-74
2020/12/28 00:07:00;;;;;;;0.63;0.38;;;6.70;99.90;;;;;;2106478;28;20028;-74
2020/12/28 00:08:00;;;;;;;0.50;0.50;;;6.70;99.90;;;;;;2106286;28;20380;-74
2020/12/28 00:09:01;;;;;;;0.40;0.38;;;6.70;99.90;;;;;;2106429;28;20036;-74
2020/12/28 00:10:04;;;;;;;0.75;0.43;;;6.70;99.90;;;;;;2105270;28;20115;-75
2020/12/28 00:11:05;;;;;;;0.50;0.50;;;6.70;99.90;;;;;;2105020;28;20149;-74
2020/12/28 00:12:05;;;;;;;0.32;0.30;;;6.70;99.90;;;;;;2106081;28;20422;-74
2020/12/28 00:13:06;;;;;;;0.38;0.38;;;6.70;99.90;;;;;;2105717;28;20024;-75
2020/12/28 00:14:06;;;;;;;0.38;0.38;;;6.70;99.90;;;;;;2105516;28;20027;-74
2020/12/28 00:15:07;;;;;;;0.40;0.40;;;6.70;99.90;;;;;;2105379;28;20109;-74
2020/12/28 00:16:07;;;;;;;0.45;0.30;;;6.70;99.90;;;;;;2106345;28;20077;-74
2020/12/28 00:17:11;;;;;;;0.40;0.40;;;6.70;99.90;;;;;;2106483;28;20024;-75
2020/12/28 00:18:11;;;;;;;0.75;0.50;;;6.70;99.90;;;;;;2105650;28;20403;-74
2020/12/28 00:19:12;;;;;;;0.40;0.40;;;6.80;99.90;;;;;;2105757;28;20028;-75
2020/12/28 00:20:14;;;;;;;0.50;0.50;;;6.80;99.90;;;;;;2106166;28;20012;-74
2020/12/28 00:21:14;;;;;;;0.65;0.40;;;6.70;99.90;;;;;;2106242;28;20597;-74
2020/12/28 00:22:15;;;;;;;0.40;0.40;;;6.80;99.90;;;;;;2105524;28;20044;-74
2020/12/28 00:23:16;;;;;;;0.40;0.40;;;6.80;99.90;;;;;;2105241;28;20028;-74
2020/12/28 00:24:17;;;;;;;0.40;0.40;;;6.80;99.90;;;;;;2105574;28;20543;-75
2020/12/28 00:25:25;;;;;;;1.95;0.45;;;6.80;99.90;;;;;;2105620;28;20614;-73
2020/12/28 00:26:26;;;;;;;0.50;0.50;;;6.80;99.90;;;;;;2106516;28;20028;-74
2020/12/28 00:27:26;;;;;;;0.80;0.60;;;6.80;99.90;;;;;;2106283;28;20054;-75
2020/12/28 00:28:27;;;;;;;0.50;0.50;;;6.70;99.90;;;;;;2105374;28;20087;-74
2020/12/28 00:29:27;;;;;;;0.63;0.50;;;6.70;99.90;;;;;;2097396;28;20508;-74
2020/12/28 00:30:28;;;;;;;0.52;0.52;;;6.70;99.90;;;;;;2105656;28;20537;-74
2020/12/28 00:31:29;;;;;;;0.40;0.40;;;6.70;99.90;;;;;;2106017;28;20403;-75
2020/12/28 00:32:29;;;;;;;0.60;0.52;;;6.70;99.90;;;;;;2105142;28;20051;-74
2020/12/28 00:33:30;;;;;;;0.70;0.55;;;6.70;99.90;;;;;;2105084;28;20407;-74
2020/12/28 00:34:30;;;;;;;0.45;0.45;;;6.70;99.90;;;;;;2106115;28;20480;-74
2020/12/28 00:35:31;;;;;;;0.50;0.50;;;6.70;99.90;;;;;;2105942;28;20035;-75
2020/12/28 00:36:31;;;;;;;0.93;0.68;;;6.70;99.90;;;;;;2106146;28;20044;-75
2020/12/28 00:37:32;;;;;;;0.45;0.43;;;6.70;99.90;;;;;;2105942;28;20032;-74
2020/12/28 00:38:32;;;;;;;0.70;0.50;;;6.70;99.90;;;;;;2106039;28;20052;-75
2020/12/28 00:39:33;;;;;;;0.55;0.40;;;6.70;99.90;;;;;;2106207;28;20429;-75
2020/12/28 00:40:33;;;;;;;0.30;0.30;;;6.70;99.90;;;;;;2105463;28;20077;-73
2020/12/28 00:41:34;;;;;;;0.40;0.40;;;6.70;99.90;;;;;;2105409;28;20167;-74
2020/12/28 00:42:34;;;;;;;0.40;0.40;;;6.70;99.90;;;;;;2106085;28;20024;-73
2020/12/28 00:43:35;;;;;;;0.40;0.40;;;6.70;99.90;;;;;;2105630;28;20032;-74
2020/12/28 00:44:35;;;;;;;0.43;0.43;;;6.70;99.90;;;;;;2105203;28;20159;-76
2020/12/28 00:45:36;;;;;;;0.60;0.60;;;6.70;99.90;;;;;;2105639;28;20047;-73
2020/12/28 00:46:37;;;;;;;0.40;0.40;;;6.70;99.90;;;;;;2105308;28;20024;-73
2020/12/28 00:47:37;;;;;;;0.50;0.50;;;6.70;99.90;;;;;;2096874;28;20048;-74
2020/12/28 00:48:38;;;;;;;0.60;0.50;;;6.70;99.90;;;;;;2105588;28;20549;-73
2020/12/28 00:49:39;;;;;;;0.50;0.50;;;6.70;99.90;;;;;;2105967;28;20395;-74
2020/12/28 00:50:40;;;;;;;0.50;0.50;;;6.70;99.90;;;;;;2106073;28;20108;-74
2020/12/28 00:51:40;;;;;;;0.50;0.50;;;6.70;99.90;;;;;;2105418;28;20032;-74
2020/12/28 00:52:41;;;;;;;0.50;0.50;;;6.70;99.90;;;;;;2097049;28;20500;-74
2020/12/28 00:53:42;;;;;;;0.45;0.45;;;6.70;99.90;;;;;;2105053;28;20533;-74
2020/12/28 00:54:42;;;;;;;0.50;0.50;;;6.70;99.90;;;;;;2106171;28;20153;-74
2020/12/28 00:55:43;;;;;;;0.43;0.43;;;6.70;99.90;;;;;;2106051;28;20384;-73
2020/12/28 00:56:43;;;;;;;0.40;0.40;;;6.70;99.90;;;;;;2106003;28;20601;-74
2020/12/28 00:57:44;;;;;;;0.65;0.60;;;6.70;99.90;;;;;;2105803;28;20084;-75
2020/12/28 00:58:44;;;;;;;0.85;0.60;;;6.70;99.90;;;;;;2105811;28;20025;-73
2020/12/28 00:59:45;;;;;;;0.43;0.43;;;6.70;99.90;;;;;;2105983;28;20111;-74
2020/12/28 01:00:45;;;;;;;0.45;0.45;;;6.70;99.90;;;;;;2106302;28;20075;-74
2020/12/28 01:01:46;;;;;;;0.55;0.55;;;6.70;99.90;;;;;;2106077;28;20020;-74
2020/12/28 01:02:46;;;;;;;0.30;0.30;;;6.70;99.90;;;;;;2105907;28;20384;-73
2020/12/28 01:03:47;;;;;;;0.75;0.75;;;6.70;99.90;;;;;;2105486;28;20034;-74
2020/12/28 01:04:48;;;;;;;1.08;0.50;;;6.70;99.90;;;;;;2105953;28;20301;-74
2020/12/28 01:05:48;;;;;;;1.38;0.50;;;6.70;99.90;;;;;;2105883;28;20028;-74
2020/12/28 01:06:49;;;;;;;0.30;0.30;;;6.70;99.90;;;;;;2105983;28;20244;-74
2020/12/28 01:07:49;;;;;;;0.35;0.35;;;6.70;99.90;;;;;;2105860;28;20473;-73
2020/12/28 01:08:50;;;;;;;0.40;0.40;;;6.70;99.90;;;;;;2105845;28;20078;-74
2020/12/28 01:09:51;;;;;;;0.50;0.50;;;6.70;99.90;;;;;;2105736;28;20043;-75
2020/12/28 01:10:51;;;;;;;0.40;0.40;;;6.70;99.90;;;;;;2105980;28;20488;-73
2020/12/28 01:11:52;;;;;;;0.50;0.50;;;6.70;99.90;;;;;;2105816;28;20425;-74
2020/12/28 01:12:52;;;;;;;0.47;0.47;;;6.70;99.90;;;;;;2104486;28;20020;-74
2020/12/28 01:13:53;;;;;;;1.48;0.70;;;6.70;99.90;;;;;;2104392;28;20095;-75
2020/12/28 01:14:53;;;;;;;0.43;0.43;;;6.70;99.90;;;;;;2105513;28;20066;-73
2020/12/28 01:15:54;;;;;;;0.43;0.43;;;6.70;99.90;;;;;;2106038;28;20046;-73
2020/12/28 01:16:54;;;;;;;0.60;0.60;;;6.70;99.90;;;;;;2105921;28;20024;-73
2020/12/28 01:17:55;;;;;;;0.40;0.40;;;6.70;99.90;;;;;;2096729;28;20021;-74
2020/12/28 01:18:56;;;;;;;0.60;0.60;;;6.70;99.90;;;;;;2096688;28;20088;-74
2020/12/28 01:19:57;;;;;;;0.47;0.45;;;6.70;99.90;;;;;;2105922;28;20023;-74
2020/12/28 01:20:57;;;;;;;0.75;0.50;;;6.70;99.90;;;;;;2105565;28;20027;-74
2020/12/28 01:21:58;;;;;;;0.40;0.40;;;6.70;99.90;;;;;;2105919;28;20020;-74
2020/12/28 01:23:00;;;;;;;0.38;0.38;;;6.70;99.90;;;;;;2105480;28;20024;-74
2020/12/28 01:24:00;;;;;;;0.60;0.40;;;6.70;99.90;;;;;;2105623;28;20031;-74
2020/12/28 01:25:01;;;;;;;0.30;0.30;;;6.70;99.90;;;;;;2105584;28;20086;-75
2020/12/28 01:26:01;;;;;;;0.50;0.50;;;6.70;99.90;;;;;;2106064;28;20035;-74
2020/12/28 01:27:02;;;;;;;1.08;0.40;;;6.70;99.90;;;;;;2105524;28;20032;-74
2020/12/28 01:28:03;;;;;;;1.42;0.45;;;6.80;99.90;;;;;;2105752;28;20028;-75
2020/12/28 01:29:03;;;;;;;0.77;0.65;;;6.70;99.90;;;;;;2105575;28;20035;-74
2020/12/28 01:30:04;;;;;;;0.60;0.60;;;6.70;99.90;;;;;;2105124;28;20032;-75
2020/12/28 01:31:05;;;;;;;0.45;0.45;;;6.70;99.90;;;;;;2104968;28;20020;-75
2020/12/28 01:32:05;;;;;;;0.50;0.50;;;6.70;99.90;;;;;;2096693;28;20413;-74
2020/12/28 01:33:06;;;;;;;0.60;0.60;;;6.70;99.90;;;;;;2096047;28;20536;-74
2020/12/28 01:34:06;;;;;;;0.73;0.40;;;6.70;99.90;;;;;;2105788;28;20472;-74
2020/12/28 01:35:07;;;;;;;0.60;0.60;;;6.70;99.90;;;;;;2105502;28;20028;-74
2020/12/28 01:36:08;;;;;;;1.00;0.50;;;6.70;99.90;;;;;;2105729;28;20020;-74
2020/12/28 01:37:09;;;;;;;1.25;0.40;;;6.80;99.90;;;;;;2105360;28;20024;-74
2020/12/28 01:38:10;;;;;;;0.60;0.60;;;6.80;99.90;;;;;;2105765;28;20025;-74
2020/12/28 01:39:10;;;;;;;0.30;0.30;;;6.80;99.90;;;;;;2105410;28;20020;-74
2020/12/28 01:40:11;;;;;;;2.08;0.85;;;6.80;99.90;;;;;;2105536;28;20444;-74
2020/12/28 01:41:12;;;;;;;0.40;0.40;;;6.70;99.90;;;;;;2105763;28;20479;-73
2020/12/28 01:42:12;;;;;;;0.80;0.45;;;6.80;99.90;;;;;;2105643;28;20020;-73
2020/12/28 01:43:13;;;;;;;0.60;0.60;;;6.80;99.90;;;;;;2105147;28;20032;-74
2020/12/28 01:44:13;;;;;;;0.52;0.52;;;6.80;99.90;;;;;;2105015;28;20102;-74
2020/12/28 01:45:14;;;;;;;0.50;0.50;;;6.80;99.90;;;;;;2096644;28;20032;-74
2020/12/28 01:46:16;;;;;;;0.70;0.70;;;6.80;99.90;;;;;;2104862;28;20035;-74
2020/12/28 01:47:16;;;;;;;0.60;0.60;;;6.80;99.90;;;;;;2105167;28;20099;-75
2020/12/28 01:48:18;;;;;;;0.50;0.50;;;6.80;99.90;;;;;;2096376;28;20354;-74
2020/12/28 01:49:18;;;;;;;0.40;0.40;;;6.80;99.90;;;;;;2096659;28;20035;-74
2020/12/28 01:50:19;;;;;;;0.88;0.55;;;6.80;99.90;;;;;;2096676;28;20017;-74
2020/12/28 01:51:20;;;;;;;0.50;0.50;;;6.80;99.90;;;;;;2105022;28;20024;-74
2020/12/28 01:52:21;;;;;;;0.50;0.50;;;6.80;99.90;;;;;;2105336;28;20032;-75
2020/12/28 01:53:23;;;;;;;0.50;0.50;;;6.80;99.90;;;;;;2105081;28;20063;-74
2020/12/28 01:54:23;;;;;;;0.50;0.50;;;6.80;99.90;;;;;;2105370;28;20028;-74
2020/12/28 01:55:24;;;;;;;0.88;0.50;;;6.80;99.90;;;;;;2104812;28;20596;-74
2020/12/28 01:56:27;;;;;;;0.80;0.40;;;6.80;99.90;;;;;;2105026;28;20131;-75
2020/12/28 01:57:28;;;;;;;0.43;0.43;;;6.80;99.90;;;;;;2104794;28;20122;-74
2020/12/28 01:58:29;;;;;;;0.93;0.93;;;6.80;99.90;;;;;;2104771;28;20016;-74
2020/12/28 01:59:30;;;;;;;0.52;0.52;;;6.80;99.90;;;;;;2105553;28;20541;-74
2020/12/28 02:00:30;;;;;;;0.60;0.60;;;6.80;99.90;;;;;;2105431;28;20051;-74
2020/12/28 02:01:38;;;;;;;0.80;0.70;;;6.80;99.90;;;;;;2105311;28;20046;-74
2020/12/28 02:02:40;;;;;;;0.98;0.43;;;6.80;99.90;;;;;;2105370;28;20380;-74
2020/12/28 02:03:40;;;;;;;0.43;0.43;;;6.80;99.90;;;;;;2105153;28;20027;-73
2020/12/28 02:04:41;;;;;;;0.52;0.52;;;6.80;99.90;;;;;;2105339;28;20032;-74
2020/12/28 02:05:41;;;;;;;0.60;0.60;;;6.80;99.90;;;;;;2105676;28;20039;-73
2020/12/28 02:06:42;;;;;;;0.40;0.40;;;6.80;99.90;;;;;;2105716;28;20020;-75
2020/12/28 02:07:44;;;;;;;0.60;0.45;;;6.80;99.90;;;;;;2105314;28;20439;-74
2020/12/28 02:08:45;;;;;;;1.50;0.40;;;6.80;99.90;;;;;;2105204;28;20207;-73
2020/12/28 02:09:47;;;;;;;0.50;0.50;;;6.80;99.90;;;;;;2104779;28;20392;-74
2020/12/28 02:10:53;;;;;;;1.48;0.40;;;6.80;99.90;;;;;;2104817;28;20171;-74
2020/12/28 02:11:54;;;;;;;0.50;0.50;;;6.80;99.90;;;;;;2105465;28;20028;-74
2020/12/28 02:12:55;;;;;;;0.50;0.50;;;6.80;99.90;;;;;;2105161;28;20024;-74
2020/12/28 02:13:56;;;;;;;0.60;0.60;;;6.80;99.90;;;;;;2102225;28;20063;-74
2020/12/28 02:14:57;;;;;;;0.55;0.55;;;6.80;99.90;;;;;;2105191;28;20103;-74
2020/12/28 02:15:57;;;;;;;0.60;0.60;;;6.80;99.90;;;;;;2105273;28;20024;-75
2020/12/28 02:16:58;;;;;;;0.52;0.47;;;6.90;99.90;;;;;;2105092;28;20055;-75
2020/12/28 02:17:59;;;;;;;0.50;0.50;;;6.90;99.90;;;;;;2105142;28;20050;-74
2020/12/28 02:19:00;;;;;;;0.45;0.45;;;6.90;99.90;;;;;;2105148;28;20047;-73
2020/12/28 02:20:00;;;;;;;0.40;0.40;;;6.90;99.90;;;;;;2105515;28;20476;-74
2020/12/28 02:21:01;;;;;;;0.50;0.50;;;6.80;99.90;;;;;;2105184;28;20426;-75
2020/12/28 02:22:01;;;;;;;0.40;0.40;;;6.80;99.90;;;;;;2105305;28;20039;-74
2020/12/28 02:23:02;;;;;;;0.77;0.65;;;6.80;99.90;;;;;;2104684;28;20438;-75
2020/12/28 02:24:03;;;;;;;0.50;0.50;;;6.90;99.90;;;;;;2105304;28;20055;-74
2020/12/28 02:25:03;;;;;;;0.80;0.63;;;6.80;99.90;;;;;;2104996;28;20380;-73
2020/12/28 02:26:04;;;;;;;0.55;0.52;;;6.90;99.90;;;;;;2105340;28;20141;-74
2020/12/28 02:27:04;;;;;;;0.68;0.68;;;6.80;99.90;;;;;;2104981;28;20061;-74
2020/12/28 02:28:05;;;;;;;0.40;0.40;;;6.90;99.90;;;;;;2105342;28;20035;-74
2020/12/28 02:29:05;;;;;;;0.60;0.60;;;6.90;99.90;;;;;;2105071;28;20042;-74
2020/12/28 02:30:06;;;;;;;1.30;0.50;;;6.90;99.90;;;;;;2104985;28;20043;-74
2020/12/28 02:31:07;;;;;;;1.30;0.90;;;6.90;99.90;;;;;;2105015;28;20026;-74
2020/12/28 02:32:07;;;;;;;0.75;0.70;;;6.90;99.90;;;;;;2105374;28;20031;-74
2020/12/28 02:33:08;;;;;;;0.55;0.40;;;6.80;99.90;;;;;;2104418;28;20017;-74
2020/12/28 02:34:08;;;;;;;0.73;0.57;;;6.80;99.90;;;;;;2105155;28;20354;-73
2020/12/28 02:35:09;;;;;;;0.57;0.55;;;6.90;99.90;;;;;;2105204;28;20020;-75
2020/12/28 02:36:09;;;;;;;0.60;0.60;;;6.80;99.90;;;;;;2104615;28;20016;-74
2020/12/28 02:37:10;;;;;;;0.55;0.55;;;6.80;99.90;;;;;;2104409;28;20028;-75
2020/12/28 02:38:11;;;;;;;1.50;0.68;;;6.90;99.90;;;;;;2105319;28;20086;-74
2020/12/28 02:39:11;;;;;;;0.77;0.60;;;6.80;99.90;;;;;;2104828;28;20032;-74
2020/12/28 02:40:12;;;;;;;0.85;0.60;;;6.80;99.90;;;;;;2104925;28;20027;-73
2020/12/28 02:41:12;;;;;;;0.60;0.60;;;6.80;99.90;;;;;;2104888;28;20031;-74
2020/12/28 02:42:13;;;;;;;0.68;0.55;;;6.80;99.90;;;;;;2104902;28;20445;-75
2020/12/28 02:43:14;;;;;;;0.55;0.55;;;6.80;99.90;;;;;;2104064;28;20052;-74
2020/12/28 02:44:15;;;;;;;0.95;0.95;;;6.80;99.90;;;;;;2104701;28;20093;-73
2020/12/28 02:45:15;;;;;;;1.20;0.70;;;6.80;99.90;;;;;;2104301;28;20028;-74
2020/12/28 02:46:16;;;;;;;1.40;0.60;;;6.80;99.90;;;;;;2096336;28;20646;-75
2020/12/28 02:47:17;;;;;;;0.70;0.70;;;6.80;99.90;;;;;;2104379;28;20024;-74
2020/12/28 02:48:17;;;;;;;0.82;0.60;;;6.80;99.90;;;;;;2104583;28;20027;-74
2020/12/28 02:49:18;;;;;;;0.80;0.65;;;6.80;99.90;;;;;;2104340;28;20032;-74
2020/12/28 02:50:18;;;;;;;1.50;0.50;;;6.80;99.90;;;;;;2104688;28;20024;-73
2020/12/28 02:51:19;;;;;;;2.53;0.75;;;6.80;99.90;;;;;;2104412;28;20212;-73
2020/12/28 02:52:19;;;;;;;0.77;0.70;;;6.90;99.90;;;;;;2105169;28;20452;-73
2020/12/28 02:53:20;;;;;;;1.17;0.70;;;6.80;99.90;;;;;;2103922;28;20050;-75
2020/12/28 02:54:20;;;;;;;1.08;0.80;;;6.90;99.90;;;;;;2104526;28;20172;-74
2020/12/28 02:55:21;;;;;;;0.60;0.60;;;6.90;99.90;;;;;;2105079;28;20410;-74
2020/12/28 02:56:22;;;;;;;0.95;0.52;;;6.90;99.90;;;;;;2105114;28;20032;-73
2020/12/28 02:57:22;;;;;;;0.52;0.52;;;6.90;99.90;;;;;;2104788;28;20020;-75
2020/12/28 02:58:23;;;;;;;0.77;0.70;;;6.90;99.90;;;;;;2104913;28;20028;-73
2020/12/28 02:59:23;;;;;;;0.73;0.73;;;6.90;99.90;;;;;;2104954;28;20031;-73
2020/12/28 03:00:24;;;;;;;1.42;0.88;;;6.90;99.90;;;;;;2104931;28;20020;-76
2020/12/28 03:01:24;;;;;;;0.80;0.60;;;6.90;99.90;;;;;;2105686;28;20181;-74
2020/12/28 03:02:25;;;;;;;0.80;0.80;;;6.90;99.90;;;;;;2105678;28;20020;-74
2020/12/28 03:03:25;;;;;;;1.83;0.73;;;6.90;99.90;;;;;;2105095;28;20020;-74
2020/12/28 03:04:26;;;;;;;1.13;0.98;;;6.90;99.90;;;;;;2105502;28;20349;-74
2020/12/28 03:05:27;;;;;;;1.15;1.05;;;6.90;99.90;;;;;;2105595;28;20028;-73
2020/12/28 03:06:27;;;;;;;1.20;1.10;;;6.90;99.90;;;;;;2105561;28;20020;-73
2020/12/28 03:07:28;;;;;;;1.95;1.05;;;6.90;99.90;;;;;;2105412;28;20083;-73
2020/12/28 03:08:28;;;;;;;2.22;0.80;;;6.90;99.90;;;;;;2105592;28;20519;-73
2020/12/28 03:09:29;;;;;;;1.45;0.88;;;6.90;99.90;;;;;;2105527;28;20030;-74
2020/12/28 03:10:29;;;;;;;0.88;0.85;;;6.90;99.90;;;;;;2105373;28;20020;-73
2020/12/28 03:11:30;;;;;;;2.58;0.80;;;6.90;99.90;;;;;;2105157;28;20035;-74
2020/12/28 03:12:31;;;;;;;1.42;0.70;;;6.90;99.90;;;;;;2104815;28;20124;-73
2020/12/28 03:13:31;;;;;;;0.73;0.70;;;6.90;99.90;;;;;;2105063;28;20032;-73
2020/12/28 03:14:32;;;;;;;0.50;0.50;;;6.80;99.90;;;;;;2105631;28;20028;-74
2020/12/28 03:15:32;;;;;;;0.75;0.70;;;6.90;99.90;;;;;;2105494;28;20020;-73
2020/12/28 03:16:33;;;;;;;0.75;0.73;;;6.80;99.90;;;;;;2105399;28;20032;-74
2020/12/28 03:17:33;;;;;;;0.70;0.70;;;6.90;99.90;;;;;;2104889;28;20035;-73
2020/12/28 03:18:34;;;;;;;0.80;0.80;;;6.80;99.90;;;;;;2104894;28;20099;-74
2020/12/28 03:19:34;;;;;;;1.30;0.70;;;6.80;99.90;;;;;;2105375;28;20017;-74
2020/12/28 03:20:35;;;;;;;0.90;0.90;;;6.80;99.90;;;;;;2105101;28;20502;-73
2020/12/28 03:21:35;;;;;;;0.75;0.75;;;6.80;99.90;;;;;;2104820;28;20024;-73
2020/12/28 03:22:36;;;;;;;2.45;1.00;;;6.80;99.90;;;;;;2105532;28;20491;-73
2020/12/28 03:23:36;;;;;;;1.10;1.00;;;6.80;99.90;;;;;;2105294;28;20028;-73
2020/12/28 03:24:37;;;;;;;1.15;0.70;;;6.80;99.90;;;;;;2105694;28;20024;-74
2020/12/28 03:25:37;;;;;;;1.55;0.95;;;6.80;99.90;;;;;;2105637;28;20024;-73
2020/12/28 03:26:38;;;;;;;1.17;0.90;;;6.80;99.90;;;;;;2104847;28;20020;-73
2020/12/28 03:27:38;;;;;;;1.05;0.70;;;6.80;99.90;;;;;;2104519;28;20035;-74
2020/12/28 03:28:39;;;;;;;1.02;0.82;;;6.80;99.90;;;;;;2105527;28;20043;-74
2020/12/28 03:29:40;;;;;;;0.80;0.80;;;6.80;99.90;;;;;;2105394;28;20024;-74
2020/12/28 03:30:40;;;;;;;1.13;1.08;;;6.80;99.90;;;;;;2105647;28;20035;-73
2020/12/28 03:31:41;;;;;;;0.90;0.90;;;6.80;99.90;;;;;;2105414;28;20889;-73
2020/12/28 03:32:42;;;;;;;1.35;0.73;;;6.80;99.90;;;;;;2105637;28;20406;-74
2020/12/28 03:33:43;;;;;;;1.20;1.10;;;6.80;99.90;;;;;;2104751;28;20058;-73
2020/12/28 03:34:44;;;;;;;0.70;0.70;;;6.80;99.90;;;;;;2105465;28;20318;-74
2020/12/28 03:35:44;;;;;;;0.80;0.80;;;6.70;99.90;;;;;;2105438;28;20080;-73
2020/12/28 03:36:45;;;;;;;0.90;0.70;;;6.70;99.90;;;;;;2104194;28;20073;-74
2020/12/28 03:37:45;;;;;;;2.25;0.73;;;6.70;99.90;;;;;;2104552;28;20038;-73
2020/12/28 03:38:46;;;;;;;0.60;0.60;;;6.70;99.90;;;;;;2104823;28;20028;-73
2020/12/28 03:39:47;;;;;;;0.70;0.70;;;6.80;99.90;;;;;;2104540;28;20074;-73
2020/12/28 03:40:48;;;;;;;0.70;0.70;;;6.70;99.90;;;;;;2105548;28;20197;-74
2020/12/28 03:41:49;;;;;;;0.75;0.75;;;6.70;99.90;;;;;;2105437;28;20066;-73
2020/12/28 03:42:49;;;;;;;0.63;0.63;;;6.70;99.90;;;;;;2105390;28;20016;-74
2020/12/28 03:43:50;;;;;;;0.70;0.70;;;6.70;99.90;;;;;;2104871;28;20035;-74
2020/12/28 03:44:50;;;;;;;0.60;0.60;;;6.70;99.90;;;;;;2105533;28;20077;-74
2020/12/28 03:45:51;;;;;;;1.13;0.68;;;6.70;99.90;;;;;;2105265;28;20063;-73
2020/12/28 03:46:51;;;;;;;0.90;0.70;;;6.70;99.90;;;;;;2105475;28;20032;-73
2020/12/28 03:47:52;;;;;;;0.73;0.73;;;6.70;99.90;;;;;;2105139;28;20034;-74
2020/12/28 03:48:52;;;;;;;1.10;0.75;;;6.70;99.90;;;;;;2105252;28;20032;-74
2020/12/28 03:49:53;;;;;;;1.50;0.70;;;6.70;99.90;;;;;;2105146;28;20110;-73
2020/12/28 03:50:53;;;;;;;1.20;0.75;;;6.70;99.90;;;;;;2105619;28;20024;-74
2020/12/28 03:51:54;;;;;;;0.70;0.70;;;6.70;99.90;;;;;;2105165;28;20028;-73
2020/12/28 03:52:54;;;;;;;0.60;0.60;;;6.70;99.90;;;;;;2105383;28;20031;-74
2020/12/28 03:53:55;;;;;;;0.57;0.55;;;6.70;99.90;;;;;;2105130;28;20028;-74
2020/12/28 03:54:55;;;;;;;0.65;0.65;;;6.80;99.90;;;;;;2105314;28;20361;-74
2020/12/28 03:55:56;;;;;;;0.50;0.50;;;6.70;99.90;;;;;;2105537;28;20067;-74
2020/12/28 03:56:56;;;;;;;0.80;0.80;;;6.70;99.90;;;;;;2105413;28;20502;-73
2020/12/28 03:57:57;;;;;;;1.48;1.00;;;6.70;99.90;;;;;;2104955;28;20568;-73
2020/12/28 03:58:58;;;;;;;1.77;0.65;;;6.70;99.90;;;;;;2105008;28;20525;-74
2020/12/28 03:59:58;;;;;;;0.77;0.77;;;6.70;99.90;;;;;;2104642;28;20546;-74
2020/12/28 04:00:59;;;;;;;0.75;0.75;;;6.70;99.90;;;;;;2104691;28;20628;-74
2020/12/28 04:01:59;;;;;;;1.65;0.80;;;6.80;99.90;;;;;;2104871;28;20196;-74
2020/12/28 04:03:00;;;;;;;0.77;0.77;;;6.70;99.90;;;;;;2104697;28;20063;-74
2020/12/28 04:04:00;;;;;;;0.52;0.52;;;6.70;99.90;;;;;;2104763;28;20025;-74
2020/12/28 04:05:01;;;;;;;0.70;0.70;;;6.70;99.90;;;;;;2104653;28;20031;-73
2020/12/28 04:06:02;;;;;;;0.60;0.60;;;6.70;99.90;;;;;;2105139;28;20020;-74
2020/12/28 04:07:02;;;;;;;0.70;0.70;;;6.70;99.90;;;;;;2104739;28;20032;-74
2020/12/28 04:08:06;;;;;;;0.82;0.82;;;6.80;99.90;;;;;;2104732;28;20099;-74
2020/12/28 04:09:06;;;;;;;2.05;0.73;;;6.80;99.90;;;;;;2104927;28;20081;-74
2020/12/28 04:10:07;;;;;;;2.05;0.95;;;6.80;99.90;;;;;;2103946;28;20498;-74
2020/12/28 04:11:07;;;;;;;0.60;0.60;;;6.80;99.90;;;;;;2103833;28;20145;-73
2020/12/28 04:12:08;;;;;;;0.70;0.70;;;6.80;99.90;;;;;;2104347;28;20089;-74
2020/12/28 04:13:09;;;;;;;0.75;0.75;;;6.80;99.90;;;;;;2103593;28;20028;-74
2020/12/28 04:14:09;;;;;;;2.38;1.15;;;6.80;99.90;;;;;;2104760;28;20636;-74
2020/12/28 04:15:10;;;;;;;0.60;0.60;;;6.80;99.90;;;;;;2104475;28;20050;-74
2020/12/28 04:16:14;;;;;;;1.13;0.70;;;6.80;99.90;;;;;;2104854;28;20472;-74
2020/12/28 04:17:15;;;;;;;0.63;0.63;;;6.80;99.90;;;;;;2104638;28;20381;-76
2020/12/28 04:18:15;;;;;;;0.50;0.50;;;6.80;99.90;;;;;;2104753;28;20030;-74
2020/12/28 04:19:16;;;;;;;0.47;0.47;;;6.80;99.90;;;;;;2104622;28;20028;-74
2020/12/28 04:20:17;;;;;;;0.50;0.50;;;6.80;99.90;;;;;;2104502;28;20024;-74
2020/12/28 04:21:18;;;;;;;1.15;0.60;;;6.80;99.90;;;;;;2104819;28;20046;-73
2020/12/28 04:22:18;;;;;;;1.33;1.17;;;6.80;99.90;;;;;;2104706;28;20039;-74
2020/12/28 04:23:19;;;;;;;0.60;0.60;;;6.80;99.90;;;;;;2104018;28;20099;-74
2020/12/28 04:24:19;;;;;;;0.70;0.70;;;6.80;99.90;;;;;;2103995;28;20054;-74
2020/12/28 04:25:20;;;;;;;1.02;0.80;;;6.80;99.90;;;;;;2095658;28;20066;-74
2020/12/28 04:26:20;;;;;;;0.80;0.63;;;6.80;99.90;;;;;;2104008;28;20392;-73
2020/12/28 04:27:21;;;;;;;0.77;0.77;;;6.80;99.90;;;;;;2095652;28;20020;-74
2020/12/28 04:28:22;;;;;;;1.10;0.70;;;6.70;99.90;;;;;;2104305;28;20105;-73
2020/12/28 04:29:22;;;;;;;0.70;0.70;;;6.80;99.90;;;;;;2104471;28;20021;-74
2020/12/28 04:30:23;;;;;;;0.60;0.60;;;6.80;99.90;;;;;;2104766;28;20533;-74
2020/12/28 04:31:23;;;;;;;1.25;0.77;;;6.80;99.90;;;;;;2103979;28;20028;-74
2020/12/28 04:32:24;;;;;;;0.90;0.90;;;6.80;99.90;;;;;;2104063;28;20055;-74
2020/12/28 04:33:24;;;;;;;0.90;0.90;;;6.80;99.90;;;;;;2103977;28;20028;-74
2020/12/28 04:34:25;;;;;;;0.73;0.73;;;6.80;99.90;;;;;;2104757;28;20016;-73
2020/12/28 04:35:26;;;;;;;0.90;0.90;;;6.80;99.90;;;;;;2104490;28;20023;-74
2020/12/28 04:36:26;;;;;;;2.20;1.00;;;6.80;99.90;;;;;;2104567;28;20020;-73
2020/12/28 04:37:27;;;;;;;1.85;0.80;;;6.80;99.90;;;;;;2104643;28;20016;-74
2020/12/28 04:38:27;;;;;;;4.40;1.25;;;6.90;99.90;;;;;;2103832;28;20073;-73
2020/12/28 04:39:28;;;;;;;1.42;0.90;;;6.90;99.90;;;;;;2095640;28;20021;-74
2020/12/28 04:40:28;;;;;;;0.85;0.52;;;6.90;99.90;;;;;;2104083;28;20570;-74
2020/12/28 04:41:29;;;;;;;0.95;0.95;;;6.90;99.90;;;;;;2104581;28;20065;-74
2020/12/28 04:42:30;;;;;;;0.90;0.80;;;6.90;99.90;;;;;;2104516;28;20020;-74
2020/12/28 04:43:31;;;;;;;0.82;0.82;;;6.90;99.90;;;;;;2104293;28;20020;-74
2020/12/28 04:44:32;;;;;;;0.95;0.95;;;6.90;99.90;;;;;;2104453;28;20028;-73
2020/12/28 04:45:33;;;;;;;2.22;0.93;;;6.90;99.90;;;;;;2104441;28;20028;-74
2020/12/28 04:46:36;;;;;;;0.80;0.80;;;6.90;99.90;;;;;;2104583;28;20032;-74
2020/12/28 04:47:37;;;;;;;0.85;0.85;;;6.90;99.90;;;;;;2104275;28;20024;-74
2020/12/28 04:48:38;;;;;;;1.25;1.05;;;6.90;99.90;;;;;;2105057;28;20452;-74
2020/12/28 04:49:39;;;;;;;1.05;1.05;;;6.80;99.90;;;;;;2105990;28;20024;-74
2020/12/28 04:50:40;;;;;;;0.80;0.80;;;6.90;99.90;;;;;;2105586;28;20051;-75
2020/12/28 04:51:41;;;;;;;0.90;0.90;;;6.90;99.90;;;;;;2105503;28;20016;-74
2020/12/28 04:52:42;;;;;;;1.00;1.00;;;6.90;99.90;;;;;;2106190;28;20032;-74
2020/12/28 04:53:45;;;;;;;0.80;0.80;;;6.90;99.90;;;;;;2105822;28;20472;-73
2020/12/28 04:54:48;;;;;;;1.60;1.00;;;6.90;99.90;;;;;;2106036;28;20265;-74
2020/12/28 04:55:49;;;;;;;0.63;0.63;;;6.90;99.90;;;;;;2106058;28;20024;-74
2020/12/28 04:56:49;;;;;;;1.60;1.42;;;6.90;99.90;;;;;;2106227;28;20433;-75
2020/12/28 04:57:50;;;;;;;0.82;0.80;;;6.90;99.90;;;;;;2105844;28;20488;-74
2020/12/28 04:58:50;;;;;;;1.30;1.20;;;6.90;99.90;;;;;;2106084;28;20379;-73
2020/12/28 04:59:55;;;;;;;1.20;1.10;;;6.80;99.90;;;;;;2105996;28;20469;-74
2020/12/28 05:01:00;;;;;;;1.98;0.85;;;6.80;99.90;;;;;;2105989;28;20103;-73
2020/12/28 05:02:01;;;;;;;1.10;1.00;;;6.80;99.90;;;;;;2105819;28;20052;-73
2020/12/28 05:03:01;;;;;;;1.00;0.93;;;6.80;99.90;;;;;;2105609;28;20024;-73
2020/12/28 05:04:02;;;;;;;0.90;0.90;;;6.80;99.90;;;;;;2106064;28;20050;-74
2020/12/28 05:05:09;;;;;;;0.98;0.98;;;6.80;99.90;;;;;;2105734;28;20016;-73
2020/12/28 05:06:10;;;;;;;1.25;0.90;;;6.90;99.90;;;;;;2106322;28;20271;-73
2020/12/28 05:07:10;;;;;;;1.10;0.90;;;6.80;99.90;;;;;;2106079;28;20016;-73
2020/12/28 05:08:11;;;;;;;0.90;0.90;;;6.80;99.90;;;;;;2105772;28;20551;-74
2020/12/28 05:09:12;;;;;;;1.85;0.80;;;6.90;99.90;;;;;;2105247;28;20028;-73
2020/12/28 05:10:25;;;;;;;1.30;0.90;;;6.90;99.90;;;;;;2096806;28;20052;-74
2020/12/28 05:11:26;;;;;;;3.20;1.02;;;6.90;99.90;;;;;;2105314;28;20024;-73
2020/12/28 05:12:26;;;;;;;0.98;0.98;;;6.90;99.90;;;;;;2105881;28;20023;-73
2020/12/28 05:13:27;;;;;;;1.15;0.98;;;6.90;99.90;;;;;;2105494;28;20027;-73
2020/12/28 05:14:29;;;;;;;1.20;0.90;;;6.90;99.90;;;;;;2105724;28;20023;-73
2020/12/28 05:15:29;;;;;;;2.05;0.80;;;6.90;99.90;;;;;;2105720;28;20372;-73
2020/12/28 05:16:30;;;;;;;1.10;1.00;;;6.90;99.90;;;;;;2105926;28;20024;-73
2020/12/28 05:17:31;;;;;;;0.90;0.90;;;6.90;99.90;;;;;;2105626;28;20024;-74
2020/12/28 05:18:33;;;;;;;0.90;0.90;;;6.90;99.90;;;;;;2105104;28;20419;-73
2020/12/28 05:19:34;;;;;;;0.85;0.85;;;6.90;99.90;;;;;;2105096;28;20024;-74
2020/12/28 05:20:35;;;;;;;1.15;0.90;;;6.90;99.90;;;;;;2105727;28;20400;-73
2020/12/28 05:21:36;;;;;;;2.53;0.90;;;6.90;99.90;;;;;;2105560;28;20111;-74